Time;durP1;ratioP1;P1;durP2;ratioP2;P2;SDS_P1;SDS_P2;PMS_P1;PMS_P2;Temp;Humidity;BMP_temperature;BMP_pressure;BME280_temperature;BME280_humidity;BME280_pressure;Samples;Min_cycle;Max_cycle;Signal;HPM_P1;HPM_P2
2023/08/22 00:00:29;;;;;;;13.75;12.05;;;24.80;85.00;;;;;;5015078;28;20030;-56
2023/08/22 00:02:56;;;;;;;14.03;12.57;;;24.70;84.80;;;;;;5015440;28;20489;-55
2023/08/22 00:05:22;;;;;;;15.75;13.55;;;24.80;84.80;;;;;;5015220;28;20026;-56
2023/08/22 00:07:49;;;;;;;15.48;12.90;;;24.80;84.70;;;;;;5014982;28;20098;-56
2023/08/22 00:10:15;;;;;;;14.43;12.90;;;24.80;84.60;;;;;;5015241;28;20079;-56
2023/08/22 00:12:41;;;;;;;15.20;13.10;;;24.80;84.60;;;;;;5015065;28;20483;-56
2023/08/22 00:15:10;;;;;;;19.98;15.07;;;24.70;84.40;;;;;;5014854;28;20165;-56
2023/08/22 00:17:36;;;;;;;22.02;14.93;;;24.70;84.40;;;;;;5015054;28;20030;-56
2023/08/22 00:20:04;;;;;;;18.92;14.85;;;24.70;84.30;;;;;;5014693;28;20494;-56
2023/08/22 00:22:30;;;;;;;20.33;15.63;;;24.70;84.30;;;;;;5014862;28;20033;-56
2023/08/22 00:24:56;;;;;;;17.55;15.70;;;24.80;84.40;;;;;;5014531;28;20049;-56
2023/08/22 00:27:21;;;;;;;22.73;17.15;;;24.70;84.50;;;;;;5014618;28;20030;-56
2023/08/22 00:29:47;;;;;;;20.08;16.30;;;24.70;84.60;;;;;;5014647;28;20030;-56
2023/08/22 00:32:12;;;;;;;20.48;17.23;;;24.70;84.80;;;;;;5014460;28;20027;-56
2023/08/22 00:34:38;;;;;;;19.23;16.10;;;24.60;84.70;;;;;;5014516;28;20018;-56
2023/08/22 00:37:04;;;;;;;20.23;17.20;;;24.60;84.70;;;;;;5014506;28;20022;-55
2023/08/22 00:39:29;;;;;;;22.98;17.30;;;24.60;84.70;;;;;;5014474;28;20026;-56
2023/08/22 00:41:55;;;;;;;21.98;18.20;;;24.60;84.70;;;;;;5014352;28;20037;-53
2023/08/22 00:44:21;;;;;;;28.30;20.67;;;24.60;84.80;;;;;;5014728;28;20029;-56
2023/08/22 00:46:46;;;;;;;29.83;21.40;;;24.60;84.70;;;;;;5014651;28;20034;-55
2023/08/22 00:49:13;;;;;;;25.02;20.58;;;24.60;85.30;;;;;;5014430;28;20022;-56
2023/08/22 00:51:42;;;;;;;27.40;20.52;;;24.60;84.60;;;;;;5014138;28;20029;-56
2023/08/22 00:54:08;;;;;;;24.35;20.33;;;24.60;84.50;;;;;;5013201;28;20469;-56
2023/08/22 00:56:37;;;;;;;25.98;21.33;;;24.60;84.40;;;;;;5014072;28;20068;-56
2023/08/22 00:59:03;;;;;;;30.08;20.92;;;24.60;84.50;;;;;;5014053;28;20049;-54
2023/08/22 01:01:30;;;;;;;25.33;21.52;;;24.60;84.30;;;;;;5013974;28;20026;-56
2023/08/22 01:03:56;;;;;;;26.17;21.77;;;24.60;84.30;;;;;;5014185;28;20026;-56
2023/08/22 01:06:25;;;;;;;30.13;22.00;;;24.60;84.30;;;;;;5014005;28;20045;-56
2023/08/22 01:09:04;;;;;;;24.25;21.65;;;24.60;84.20;;;;;;5014313;28;20079;-56
2023/08/22 01:11:37;;;;;;;24.42;21.55;;;24.60;84.30;;;;;;5014241;28;20105;-56
2023/08/22 01:14:07;;;;;;;21.92;19.80;;;24.50;84.20;;;;;;5014112;28;20109;-55
2023/08/22 01:16:33;;;;;;;22.53;20.23;;;24.50;84.30;;;;;;5013896;28;20022;-56
2023/08/22 01:19:01;;;;;;;22.98;20.60;;;24.50;84.40;;;;;;5013813;28;20018;-56
2023/08/22 01:21:27;;;;;;;22.00;19.77;;;24.50;84.40;;;;;;5013839;28;20030;-56
2023/08/22 01:23:53;;;;;;;21.58;19.45;;;24.50;84.60;;;;;;5013594;28;20026;-55
2023/08/22 01:26:19;;;;;;;20.10;18.15;;;24.40;84.60;;;;;;5013425;28;20053;-56
2023/08/22 01:28:46;;;;;;;20.30;18.13;;;24.40;84.60;;;;;;5013572;28;20034;-56
2023/08/22 01:31:21;;;;;;;19.75;17.80;;;24.40;84.70;;;;;;5013380;28;20045;-56
2023/08/22 01:33:54;;;;;;;19.73;17.50;;;24.40;84.70;;;;;;5013314;28;20026;-56
2023/08/22 01:36:21;;;;;;;19.40;17.45;;;24.40;85.00;;;;;;5013389;28;20022;-56
2023/08/22 01:38:49;;;;;;;23.10;18.33;;;24.30;85.10;;;;;;5013345;28;20054;-56
2023/08/22 01:41:16;;;;;;;18.73;16.85;;;24.30;85.10;;;;;;5013239;28;20109;-56
2023/08/22 01:43:45;;;;;;;19.45;17.67;;;24.30;85.40;;;;;;5013169;28;20037;-56
2023/08/22 01:46:11;;;;;;;20.65;18.55;;;24.30;85.60;;;;;;5013135;28;20454;-56
2023/08/22 01:48:36;;;;;;;20.73;18.67;;;24.30;85.80;;;;;;5013159;28;20112;-55
2023/08/22 01:51:03;;;;;;;20.75;18.73;;;24.30;85.90;;;;;;5013304;28;20034;-56
2023/08/22 01:53:28;;;;;;;20.40;18.35;;;24.30;85.80;;;;;;5012919;28;20026;-56
2023/08/22 01:56:00;;;;;;;20.17;18.17;;;24.30;85.80;;;;;;5015715;28;20025;-56
2023/08/22 01:58:26;;;;;;;19.75;17.80;;;24.30;85.90;;;;;;5013280;28;20033;-56
2023/08/22 02:00:52;;;;;;;19.70;17.83;;;24.30;86.00;;;;;;5013389;28;20105;-56
2023/08/22 02:03:19;;;;;;;19.75;17.88;;;24.30;85.90;;;;;;5012832;28;20104;-56
2023/08/22 02:05:44;;;;;;;20.00;18.00;;;24.30;85.80;;;;;;5012854;28;20040;-56
2023/08/22 02:08:10;;;;;;;19.63;17.67;;;24.30;85.50;;;;;;5012773;28;20113;-56
2023/08/22 02:10:36;;;;;;;18.85;16.98;;;24.30;85.30;;;;;;5012641;28;20109;-56
2023/08/22 02:13:02;;;;;;;21.42;18.73;;;24.30;85.30;;;;;;5012500;28;20113;-56
2023/08/22 02:15:27;;;;;;;18.75;16.92;;;24.30;85.40;;;;;;5012952;28;20037;-56
2023/08/22 02:17:53;;;;;;;18.90;17.10;;;24.20;85.10;;;;;;5012593;28;20108;-56
2023/08/22 02:20:19;;;;;;;20.08;18.17;;;24.30;85.20;;;;;;5012526;28;20389;-56
2023/08/22 02:22:45;;;;;;;18.80;17.00;;;24.30;85.20;;;;;;5012742;28;20105;-56
2023/08/22 02:25:11;;;;;;;19.23;17.33;;;24.20;85.00;;;;;;5012382;28;20509;-56
2023/08/22 02:27:37;;;;;;;18.10;16.33;;;24.30;85.10;;;;;;5012652;28;20017;-56
2023/08/22 02:30:11;;;;;;;18.73;16.83;;;24.30;85.00;;;;;;5012339;28;20037;-56
2023/08/22 02:32:37;;;;;;;19.20;17.40;;;24.30;84.90;;;;;;5012307;28;20030;-56
2023/08/22 02:35:03;;;;;;;18.80;16.88;;;24.30;85.00;;;;;;5012217;28;20033;-56
2023/08/22 02:37:29;;;;;;;17.60;16.00;;;24.20;84.80;;;;;;5012507;28;20036;-56
2023/08/22 02:39:55;;;;;;;19.05;17.05;;;24.20;84.80;;;;;;5012174;28;20030;-56
2023/08/22 02:42:22;;;;;;;18.45;16.52;;;24.20;84.70;;;;;;5012504;28;20033;-56
2023/08/22 02:44:47;;;;;;;18.10;16.25;;;24.20;84.70;;;;;;5012382;28;20081;-56
2023/08/22 02:47:13;;;;;;;18.75;16.90;;;24.20;84.60;;;;;;5027259;28;20485;-56
2023/08/22 02:49:38;;;;;;;17.73;16.13;;;24.20;84.60;;;;;;5011988;28;20478;-56
2023/08/22 02:52:05;;;;;;;18.65;16.73;;;24.20;84.40;;;;;;5011921;28;20438;-56
2023/08/22 02:54:30;;;;;;;18.35;16.55;;;24.20;84.50;;;;;;5011894;28;20022;-56
2023/08/22 02:56:56;;;;;;;19.60;17.60;;;24.20;84.60;;;;;;5012465;28;20358;-56
2023/08/22 02:59:22;;;;;;;18.27;16.48;;;24.10;84.60;;;;;;5012118;28;20533;-56
2023/08/22 03:01:47;;;;;;;18.23;16.52;;;24.10;84.50;;;;;;5011829;28;20026;-56
2023/08/22 03:04:13;;;;;;;17.90;16.15;;;24.10;84.60;;;;;;5011774;28;20034;-56
2023/08/22 03:06:38;;;;;;;18.55;16.67;;;24.10;84.50;;;;;;5011685;28;20037;-56
2023/08/22 03:09:04;;;;;;;18.80;16.80;;;24.10;84.40;;;;;;5011721;28;20060;-55
2023/08/22 03:11:30;;;;;;;18.95;17.02;;;24.10;84.30;;;;;;5011590;28;20127;-55
2023/08/22 03:13:55;;;;;;;17.95;16.23;;;24.10;84.20;;;;;;5012179;28;20021;-56
2023/08/22 03:16:21;;;;;;;18.35;16.45;;;24.10;84.20;;;;;;5011677;28;20022;-56
2023/08/22 03:18:46;;;;;;;17.75;16.15;;;24.10;84.10;;;;;;5011008;28;20149;-56
2023/08/22 03:21:12;;;;;;;17.00;15.23;;;24.10;84.10;;;;;;5011635;28;20109;-56
2023/08/22 03:23:38;;;;;;;17.80;16.20;;;24.10;84.00;;;;;;5011540;28;20029;-56
2023/08/22 03:26:04;;;;;;;17.20;15.60;;;24.10;84.00;;;;;;5011465;28;20112;-56
2023/08/22 03:28:31;;;;;;;18.02;16.25;;;24.10;84.00;;;;;;5011775;28;20490;-54
2023/08/22 03:30:59;;;;;;;18.63;15.88;;;24.10;83.90;;;;;;5011451;28;20113;-56
2023/08/22 03:33:25;;;;;;;17.65;15.80;;;24.20;83.90;;;;;;5011578;28;20017;-56
2023/08/22 03:35:52;;;;;;;16.35;14.85;;;24.20;83.70;;;;;;5011372;28;20137;-56
2023/08/22 03:38:18;;;;;;;16.90;15.27;;;24.20;83.70;;;;;;5011586;28;20084;-55
2023/08/22 03:40:44;;;;;;;17.02;15.40;;;24.20;83.50;;;;;;5011389;28;20478;-56
2023/08/22 03:43:09;;;;;;;17.20;15.60;;;24.20;83.50;;;;;;5010000;28;20378;-56
2023/08/22 03:45:35;;;;;;;16.30;14.75;;;24.20;83.30;;;;;;5011310;28;20033;-56
2023/08/22 03:48:04;;;;;;;17.10;15.50;;;24.20;83.20;;;;;;5011235;28;20065;-56
2023/08/22 03:50:33;;;;;;;17.15;15.43;;;24.20;83.20;;;;;;5011536;28;20362;-56
2023/08/22 03:52:59;;;;;;;16.70;15.00;;;24.20;83.10;;;;;;5011435;28;20429;-56
2023/08/22 03:55:24;;;;;;;16.15;14.63;;;24.30;83.10;;;;;;5011215;28;20034;-56
2023/08/22 03:57:50;;;;;;;17.75;14.95;;;24.30;82.90;;;;;;5013846;28;20030;-54
2023/08/22 04:00:16;;;;;;;16.20;14.60;;;24.30;82.90;;;;;;5011231;28;20113;-56
2023/08/22 04:02:41;;;;;;;17.23;14.70;;;24.40;82.70;;;;;;5011190;28;20033;-56
2023/08/22 04:05:07;;;;;;;15.50;14.00;;;24.50;82.50;;;;;;5011220;28;20080;-56
2023/08/22 04:07:33;;;;;;;16.08;14.45;;;24.60;82.40;;;;;;5011078;28;20030;-56
2023/08/22 04:09:59;;;;;;;15.43;13.88;;;24.60;82.00;;;;;;5011107;28;20044;-56
2023/08/22 04:12:25;;;;;;;14.55;13.05;;;24.80;81.70;;;;;;5011047;28;20124;-56
2023/08/22 04:14:50;;;;;;;15.88;14.38;;;24.80;81.50;;;;;;5011134;28;20036;-56
2023/08/22 04:17:16;;;;;;;15.55;14.05;;;24.80;81.20;;;;;;5011076;28;20048;-55
2023/08/22 04:19:42;;;;;;;16.30;14.60;;;24.90;80.90;;;;;;5010966;28;20121;-55
2023/08/22 04:22:07;;;;;;;14.45;13.07;;;25.00;80.80;;;;;;5011035;28;20473;-56
2023/08/22 04:24:33;;;;;;;14.85;13.35;;;25.00;80.70;;;;;;5010809;28;20105;-56
2023/08/22 04:26:59;;;;;;;16.05;14.50;;;25.00;80.40;;;;;;5011062;28;20481;-56
2023/08/22 04:29:24;;;;;;;15.27;13.40;;;25.10;80.30;;;;;;5011473;28;20037;-56
2023/08/22 04:31:50;;;;;;;15.35;13.75;;;25.20;80.20;;;;;;5014564;28;20434;-56
2023/08/22 04:34:16;;;;;;;14.60;13.23;;;25.20;80.00;;;;;;5014523;28;20110;-56
2023/08/22 04:36:41;;;;;;;13.40;12.02;;;25.20;79.80;;;;;;5014495;28;20112;-53
2023/08/22 04:39:07;;;;;;;13.63;12.32;;;25.20;79.50;;;;;;5014432;28;20030;-56
2023/08/22 04:41:33;;;;;;;14.23;12.73;;;25.20;79.20;;;;;;5014303;28;20034;-56
2023/08/22 04:43:59;;;;;;;13.57;12.20;;;25.30;79.20;;;;;;5014416;28;20081;-56
2023/08/22 04:46:24;;;;;;;13.95;12.57;;;25.30;79.30;;;;;;5014226;28;20038;-56
2023/08/22 04:48:50;;;;;;;16.23;13.25;;;25.50;78.80;;;;;;5013973;28;20029;-56
2023/08/22 04:51:15;;;;;;;14.57;12.85;;;25.60;78.30;;;;;;5014229;28;20037;-55
2023/08/22 04:53:41;;;;;;;13.48;12.20;;;25.60;77.80;;;;;;5014198;28;20030;-56
2023/08/22 04:56:07;;;;;;;14.90;13.45;;;25.60;77.70;;;;;;5014424;28;20034;-53
2023/08/22 04:58:32;;;;;;;14.30;12.75;;;25.60;77.70;;;;;;5014045;28;20034;-56
2023/08/22 05:00:58;;;;;;;14.93;13.43;;;25.50;77.70;;;;;;5013933;28;20041;-56
2023/08/22 05:03:24;;;;;;;14.35;12.85;;;25.50;77.80;;;;;;5014257;28;20034;-56
2023/08/22 05:05:50;;;;;;;14.45;13.15;;;25.50;77.80;;;;;;5014053;28;20033;-57
2023/08/22 05:08:16;;;;;;;14.65;13.02;;;25.50;78.00;;;;;;5013827;28;20113;-56
2023/08/22 05:10:42;;;;;;;14.70;13.30;;;25.50;78.40;;;;;;5013908;28;20037;-56
2023/08/22 05:13:08;;;;;;;14.68;13.27;;;25.60;78.50;;;;;;5013763;28;20089;-57
2023/08/22 05:15:34;;;;;;;21.40;13.52;;;25.60;78.60;;;;;;5013713;28;20025;-56
2023/08/22 05:17:59;;;;;;;14.52;12.77;;;25.60;78.40;;;;;;5013614;28;20022;-57
2023/08/22 05:20:25;;;;;;;14.18;12.75;;;25.70;78.40;;;;;;5013574;28;20389;-55
2023/08/22 05:22:51;;;;;;;14.77;13.35;;;25.70;78.40;;;;;;5013729;28;20049;-57
2023/08/22 05:25:17;;;;;;;15.15;13.68;;;25.70;78.50;;;;;;5013494;28;20579;-56
2023/08/22 05:27:43;;;;;;;14.80;13.40;;;25.80;78.30;;;;;;5014081;28;20042;-57
2023/08/22 05:30:09;;;;;;;14.25;12.95;;;25.90;78.10;;;;;;5013474;28;20034;-57
2023/08/22 05:32:34;;;;;;;15.02;13.63;;;25.90;77.90;;;;;;5011647;28;20045;-56
2023/08/22 05:35:00;;;;;;;14.75;13.35;;;25.90;77.60;;;;;;5011318;28;20068;-56
2023/08/22 05:37:26;;;;;;;14.38;12.98;;;25.90;77.70;;;;;;5011510;28;20049;-54
2023/08/22 05:39:52;;;;;;;13.75;12.52;;;25.90;77.70;;;;;;5011671;28;20061;-55
2023/08/22 05:42:17;;;;;;;14.32;13.00;;;25.90;77.70;;;;;;5009803;28;20538;-55
2023/08/22 05:44:43;;;;;;;15.10;13.63;;;26.00;77.80;;;;;;5007943;28;20679;-55
2023/08/22 05:47:09;;;;;;;14.20;12.57;;;26.10;77.80;;;;;;5010295;28;20069;-55
2023/08/22 05:49:35;;;;;;;14.20;12.63;;;26.10;77.40;;;;;;5012251;28;20133;-56
2023/08/22 05:52:05;;;;;;;13.80;12.30;;;26.20;76.90;;;;;;5008379;28;20040;-55
2023/08/22 05:54:31;;;;;;;13.48;12.32;;;26.20;76.90;;;;;;5008088;28;20057;-54
2023/08/22 05:56:57;;;;;;;13.75;12.50;;;26.20;77.10;;;;;;5006159;28;20034;-55
2023/08/22 05:59:23;;;;;;;14.50;13.00;;;26.20;77.10;;;;;;5004306;28;20033;-55
2023/08/22 06:01:52;;;;;;;17.42;11.93;;;26.20;77.00;;;;;;5005595;28;20032;-53
2023/08/22 06:04:17;;;;;;;13.55;12.25;;;26.30;76.60;;;;;;5004520;28;20037;-55
2023/08/22 06:06:44;;;;;;;12.60;11.38;;;26.30;76.70;;;;;;5011183;28;20117;-56
2023/08/22 06:09:10;;;;;;;12.02;10.70;;;26.30;76.30;;;;;;5008922;28;20049;-55
2023/08/22 06:11:35;;;;;;;12.55;10.98;;;26.30;76.10;;;;;;5008860;28;20030;-55
2023/08/22 06:14:01;;;;;;;12.93;10.05;;;26.30;75.40;;;;;;5007162;28;20538;-55
2023/08/22 06:16:27;;;;;;;13.05;9.88;;;26.40;75.60;;;;;;5010417;28;20418;-56
2023/08/22 06:18:52;;;;;;;9.68;8.70;;;26.30;74.90;;;;;;5008500;28;20030;-54
2023/08/22 06:21:18;;;;;;;14.60;10.00;;;26.30;74.70;;;;;;5003931;28;20034;-56
2023/08/22 06:23:44;;;;;;;11.15;8.57;;;26.30;74.40;;;;;;5004286;28;20056;-56
2023/08/22 06:26:10;;;;;;;9.35;8.23;;;26.30;73.80;;;;;;5004487;28;20100;-56
2023/08/22 06:28:36;;;;;;;9.50;8.60;;;26.20;74.20;;;;;;5005418;28;20473;-55
2023/08/22 06:31:03;;;;;;;9.50;8.60;;;26.20;73.80;;;;;;5006630;28;20045;-55
2023/08/22 06:33:29;;;;;;;10.65;8.02;;;26.20;73.40;;;;;;5011133;28;20029;-55
2023/08/22 06:35:55;;;;;;;7.72;6.93;;;26.10;72.70;;;;;;5010241;28;20095;-56
2023/08/22 06:38:20;;;;;;;8.60;7.70;;;26.10;72.70;;;;;;5002321;28;20026;-56
2023/08/22 06:40:46;;;;;;;10.77;7.97;;;26.10;73.00;;;;;;5005385;28;20478;-55
2023/08/22 06:43:13;;;;;;;9.25;8.35;;;26.00;72.60;;;;;;5000752;28;20069;-55
2023/08/22 06:45:39;;;;;;;9.23;8.32;;;25.90;72.70;;;;;;5001312;28;20138;-56
2023/08/22 06:48:05;;;;;;;8.32;7.53;;;25.90;73.30;;;;;;5003866;28;20137;-55
2023/08/22 06:50:30;;;;;;;8.43;7.57;;;25.90;73.40;;;;;;4995569;28;20528;-53
2023/08/22 06:52:56;;;;;;;8.52;7.43;;;25.80;73.30;;;;;;4990992;28;20083;-55
2023/08/22 06:55:22;;;;;;;12.43;7.85;;;25.80;73.50;;;;;;5001400;28;20037;-55
2023/08/22 06:57:47;;;;;;;8.63;7.78;;;25.90;73.40;;;;;;5005120;28;20029;-55
2023/08/22 07:00:15;;;;;;;9.05;8.07;;;25.90;73.20;;;;;;4995064;28;20115;-54
2023/08/22 07:02:45;;;;;;;7.90;7.13;;;26.00;72.60;;;;;;4992975;28;20030;-55
2023/08/22 07:05:12;;;;;;;9.15;6.65;;;26.00;72.30;;;;;;4992721;28;20035;-55
2023/08/22 07:07:39;;;;;;;7.65;6.63;;;26.00;72.30;;;;;;5002882;28;20045;-55
2023/08/22 07:10:06;;;;;;;12.25;6.78;;;26.00;71.00;;;;;;5001813;28;20109;-55
2023/08/22 07:12:31;;;;;;;13.90;6.20;;;26.00;70.40;;;;;;4998037;28;20034;-53
2023/08/22 07:14:57;;;;;;;8.27;5.75;;;26.00;69.60;;;;;;4999365;28;20026;-55
2023/08/22 07:17:22;;;;;;;5.32;4.57;;;26.10;68.90;;;;;;4988805;28;20051;-55
2023/08/22 07:19:48;;;;;;;7.70;4.53;;;26.10;68.10;;;;;;4996808;28;20060;-55
2023/08/22 07:22:14;;;;;;;6.28;5.00;;;26.10;67.20;;;;;;4988449;28;20030;-53
2023/08/22 07:24:39;;;;;;;4.53;3.63;;;26.10;67.10;;;;;;4988750;28;20049;-55
2023/08/22 07:27:05;;;;;;;5.68;4.70;;;26.20;66.80;;;;;;4990943;28;20026;-54
2023/08/22 07:29:31;;;;;;;4.63;4.03;;;26.20;66.60;;;;;;4992595;28;20121;-55
2023/08/22 07:31:59;;;;;;;6.00;4.20;;;26.20;66.50;;;;;;4995966;28;20469;-55
2023/08/22 07:34:25;;;;;;;4.85;4.32;;;26.20;66.80;;;;;;4991611;28;20100;-55
2023/08/22 07:36:54;;;;;;;5.10;4.60;;;26.20;66.70;;;;;;4999395;28;20081;-55
2023/08/22 07:39:21;;;;;;;6.25;4.00;;;26.20;67.60;;;;;;4994654;28;20041;-55
2023/08/22 07:41:47;;;;;;;6.70;3.80;;;26.30;66.50;;;;;;4995772;28;20104;-55
2023/08/22 07:44:13;;;;;;;5.00;4.05;;;26.30;66.30;;;;;;4995129;28;20393;-56
2023/08/22 07:46:39;;;;;;;5.18;3.85;;;26.30;65.70;;;;;;4992535;28;20393;-55
2023/08/22 07:49:04;;;;;;;4.85;3.80;;;26.30;65.50;;;;;;4990373;28;20029;-54
2023/08/22 07:51:31;;;;;;;4.53;3.80;;;26.30;65.50;;;;;;4998250;28;20025;-54
2023/08/22 07:53:57;;;;;;;4.28;3.88;;;26.40;65.10;;;;;;5002858;28;20355;-56
2023/08/22 07:56:23;;;;;;;5.38;4.03;;;26.30;65.10;;;;;;5003041;28;20068;-56
2023/08/22 07:58:48;;;;;;;4.72;3.78;;;26.40;64.80;;;;;;4999620;28;20125;-55
2023/08/22 08:01:14;;;;;;;6.57;4.03;;;26.40;64.90;;;;;;4997564;28;20725;-55
2023/08/22 08:03:40;;;;;;;5.72;3.95;;;26.40;64.30;;;;;;5003201;28;20112;-55
2023/08/22 08:06:06;;;;;;;5.40;3.30;;;26.40;63.80;;;;;;5003641;28;20034;-55
2023/08/22 08:08:31;;;;;;;4.38;3.65;;;26.40;63.00;;;;;;5006649;28;20038;-55
2023/08/22 08:10:57;;;;;;;4.15;3.42;;;26.40;62.50;;;;;;5010611;28;20046;-56
2023/08/22 08:13:23;;;;;;;3.80;3.33;;;26.40;62.60;;;;;;5008253;28;20084;-55
2023/08/22 08:15:49;;;;;;;3.25;2.90;;;26.40;61.30;;;;;;5007673;28;20030;-55
2023/08/22 08:18:15;;;;;;;3.90;3.30;;;26.40;60.30;;;;;;5007624;28;20489;-56
2023/08/22 08:20:42;;;;;;;4.25;2.90;;;26.40;60.00;;;;;;5006197;28;20058;-55
2023/08/22 08:23:07;;;;;;;6.47;3.20;;;26.40;60.40;;;;;;5008858;28;20155;-55
2023/08/22 08:25:33;;;;;;;4.80;3.00;;;26.40;60.40;;;;;;5006330;28;20163;-53
2023/08/22 08:27:59;;;;;;;3.97;3.03;;;26.30;59.70;;;;;;5003009;28;20030;-55
2023/08/22 08:30:24;;;;;;;4.70;2.70;;;26.30;59.70;;;;;;5006457;28;20037;-53
2023/08/22 08:32:50;;;;;;;4.53;2.80;;;26.30;59.40;;;;;;5004363;28;20741;-55
2023/08/22 08:35:16;;;;;;;4.97;3.30;;;26.30;59.50;;;;;;4999505;28;20349;-56
2023/08/22 08:37:42;;;;;;;4.32;3.17;;;26.30;59.00;;;;;;5001879;28;20022;-55
2023/08/22 08:40:08;;;;;;;4.68;3.10;;;26.20;58.20;;;;;;5006405;28;20430;-55
2023/08/22 08:42:37;;;;;;;2.97;2.65;;;26.20;58.50;;;;;;5007636;28;20034;-54
2023/08/22 08:45:05;;;;;;;6.40;3.10;;;26.20;58.10;;;;;;5004672;28;20026;-54
2023/08/22 08:47:33;;;;;;;3.65;3.08;;;26.20;57.10;;;;;;4998858;28;20029;-53
2023/08/22 08:50:04;;;;;;;5.63;2.78;;;26.20;57.30;;;;;;5006919;28;20033;-55
2023/08/22 08:52:30;;;;;;;4.72;2.80;;;26.20;57.20;;;;;;5005258;28;20466;-53
2023/08/22 08:54:57;;;;;;;11.55;2.85;;;26.10;57.70;;;;;;5006075;28;20347;-55
2023/08/22 08:57:23;;;;;;;6.10;3.20;;;26.10;57.50;;;;;;5008574;28;20469;-54
2023/08/22 08:59:48;;;;;;;4.45;2.58;;;26.10;57.30;;;;;;5006515;28;20030;-55
2023/08/22 09:02:17;;;;;;;7.38;2.97;;;26.00;57.00;;;;;;5006438;28;20477;-53
2023/08/22 09:04:43;;;;;;;15.70;3.20;;;26.00;56.00;;;;;;5002536;28;20037;-54
2023/08/22 09:07:09;;;;;;;3.10;2.65;;;26.10;55.50;;;;;;5005877;28;20036;-55
2023/08/22 09:09:36;;;;;;;3.25;2.95;;;26.00;55.80;;;;;;5008407;28;20036;-55
2023/08/22 09:12:07;;;;;;;5.30;3.00;;;26.00;56.30;;;;;;5006515;28;20034;-54
2023/08/22 09:14:34;;;;;;;2.85;2.60;;;26.10;57.50;;;;;;5007040;28;20437;-55
2023/08/22 09:17:02;;;;;;;4.00;3.13;;;26.00;57.50;;;;;;5009359;28;20482;-54
2023/08/22 09:19:32;;;;;;;3.67;3.00;;;26.10;57.70;;;;;;5007705;28;20104;-55
2023/08/22 09:22:05;;;;;;;4.60;3.10;;;26.10;58.00;;;;;;5009968;28;20181;-55
2023/08/22 09:24:32;;;;;;;8.35;3.03;;;26.00;57.90;;;;;;5007225;28;20040;-54
2023/08/22 09:27:00;;;;;;;6.35;3.50;;;26.10;58.70;;;;;;5008205;28;20033;-54
2023/08/22 09:29:33;;;;;;;4.75;3.42;;;26.10;58.70;;;;;;5012165;28;20033;-55
2023/08/22 09:32:05;;;;;;;3.65;3.08;;;26.10;58.20;;;;;;5009720;28;20053;-55
2023/08/22 09:34:32;;;;;;;4.43;3.40;;;26.10;58.30;;;;;;5003817;28;20424;-54
2023/08/22 09:36:57;;;;;;;4.60;3.47;;;26.10;58.00;;;;;;5008084;28;20485;-54
2023/08/22 09:39:24;;;;;;;4.57;3.40;;;26.10;57.80;;;;;;5007965;28;20040;-55
2023/08/22 09:41:57;;;;;;;8.15;3.45;;;26.10;58.00;;;;;;5006884;28;20053;-53
2023/08/22 09:44:25;;;;;;;4.57;2.90;;;26.10;57.90;;;;;;5004535;28;20060;-55
2023/08/22 09:46:52;;;;;;;4.53;3.25;;;26.10;57.70;;;;;;5006694;28;20109;-54
2023/08/22 09:49:18;;;;;;;9.30;3.60;;;26.00;57.60;;;;;;4997198;28;20064;-54
2023/08/22 09:51:46;;;;;;;6.53;3.60;;;26.00;58.00;;;;;;5002029;28;20041;-54
2023/08/22 09:54:16;;;;;;;4.30;3.25;;;26.00;57.40;;;;;;5000056;28;20072;-55
2023/08/22 09:56:42;;;;;;;7.10;3.45;;;26.00;57.20;;;;;;5001976;28;20019;-54
2023/08/22 09:59:08;;;;;;;4.22;3.30;;;26.00;57.40;;;;;;5002764;28;20026;-55
2023/08/22 10:01:41;;;;;;;4.30;3.50;;;26.00;56.50;;;;;;5009428;28;20354;-55
2023/08/22 10:04:08;;;;;;;4.93;3.47;;;26.10;56.50;;;;;;5005781;28;20118;-55
2023/08/22 10:06:36;;;;;;;4.63;3.13;;;26.00;57.20;;;;;;5008222;28;20063;-56
2023/08/22 10:09:11;;;;;;;4.07;3.08;;;26.00;57.40;;;;;;4996550;28;20034;-54
2023/08/22 10:11:42;;;;;;;4.28;3.03;;;26.00;57.40;;;;;;5004665;28;20042;-54
2023/08/22 10:14:12;;;;;;;3.72;3.13;;;26.00;57.70;;;;;;5002037;28;20478;-55
2023/08/22 10:16:38;;;;;;;;;;;26.00;57.70;;;;;;5005381;28;20605;-55
2023/08/22 10:19:04;;;;;;;3.47;3.17;;;25.90;58.30;;;;;;4998945;28;19914;-54
2023/08/22 10:21:45;;;;;;;8.50;3.10;;;25.90;57.80;;;;;;4998581;28;20053;-53
2023/08/22 10:24:26;;;;;;;3.90;3.10;;;25.90;57.30;;;;;;4995803;28;20022;-55
2023/08/22 10:27:02;;;;;;;;;;;25.90;57.90;;;;;;4997843;28;20553;-55
2023/08/22 10:29:34;;;;;;;4.15;2.92;;;25.90;58.50;;;;;;5000827;28;19925;-54
2023/08/22 10:32:03;;;;;;;3.40;2.92;;;25.90;58.10;;;;;;5001724;28;20037;-55
2023/08/22 10:34:34;;;;;;;3.20;2.72;;;25.90;58.20;;;;;;4998925;28;20363;-53
2023/08/22 10:37:01;;;;;;;3.55;2.88;;;25.90;58.60;;;;;;4994213;28;20022;-55
2023/08/22 10:39:38;;;;;;;3.55;2.75;;;25.90;58.60;;;;;;5007315;28;20014;-57
2023/08/22 10:42:04;;;;;;;4.85;2.90;;;25.90;58.10;;;;;;5004041;28;20026;-54
2023/08/22 10:44:32;;;;;;;4.03;2.78;;;25.90;58.00;;;;;;5003159;28;20490;-54
2023/08/22 10:47:06;;;;;;;5.60;2.90;;;25.90;58.50;;;;;;5005239;28;20061;-55
2023/08/22 10:49:33;;;;;;;3.72;2.88;;;25.90;57.90;;;;;;4998529;28;20041;-54
2023/08/22 10:52:06;;;;;;;3.83;2.88;;;25.90;58.80;;;;;;5004795;28;20409;-54
2023/08/22 10:54:32;;;;;;;5.32;3.00;;;25.90;58.60;;;;;;4994749;28;20109;-54
2023/08/22 10:57:17;;;;;;;4.50;2.70;;;25.90;58.00;;;;;;4998546;28;20065;-56
2023/08/22 10:59:58;;;;;;;5.30;3.10;;;26.00;57.80;;;;;;5002074;28;20113;-53
2023/08/22 11:02:31;;;;;;;3.50;3.10;;;26.00;58.20;;;;;;5003233;28;20481;-54
2023/08/22 11:04:58;;;;;;;4.88;2.88;;;25.90;58.00;;;;;;5003864;28;20029;-54
2023/08/22 11:07:25;;;;;;;4.10;2.75;;;26.00;57.90;;;;;;5001238;28;20041;-53
2023/08/22 11:09:51;;;;;;;4.30;3.20;;;26.00;57.90;;;;;;4995470;28;20048;-54
2023/08/22 11:12:21;;;;;;;6.13;3.22;;;26.00;57.90;;;;;;5001487;28;20504;-53
2023/08/22 11:14:48;;;;;;;4.55;2.85;;;26.00;58.20;;;;;;5003336;28;20485;-55
2023/08/22 11:17:14;;;;;;;3.40;2.92;;;26.00;58.60;;;;;;5005005;28;20026;-55
2023/08/22 11:19:41;;;;;;;3.58;2.80;;;26.00;58.70;;;;;;4999859;28;20022;-53
2023/08/22 11:22:07;;;;;;;6.35;3.20;;;26.00;58.20;;;;;;5000684;28;20335;-53
2023/08/22 11:24:33;;;;;;;6.20;3.08;;;26.00;58.40;;;;;;4994091;28;20040;-55
2023/08/22 11:27:03;;;;;;;3.35;2.70;;;26.00;57.30;;;;;;4997132;28;20033;-55
2023/08/22 11:29:30;;;;;;;4.07;2.78;;;26.00;57.70;;;;;;5004388;28;20580;-53
2023/08/22 11:31:56;;;;;;;6.07;2.80;;;26.00;56.00;;;;;;5008588;28;20361;-55
2023/08/22 11:34:22;;;;;;;4.75;2.53;;;26.00;55.60;;;;;;4992443;28;20038;-54
2023/08/22 11:36:47;;;;;;;4.75;2.90;;;26.00;55.20;;;;;;4995377;28;20762;-54
2023/08/22 11:39:14;;;;;;;2.78;2.50;;;26.00;55.30;;;;;;5001244;28;20029;-52
2023/08/22 11:41:39;;;;;;;3.40;2.83;;;26.00;55.10;;;;;;5004769;28;20033;-53
2023/08/22 11:44:12;;;;;;;3.70;2.60;;;26.00;54.70;;;;;;5009018;28;20022;-54
2023/08/22 11:46:40;;;;;;;4.25;2.22;;;26.00;55.20;;;;;;5010102;28;20021;-55
2023/08/22 11:49:07;;;;;;;3.75;2.42;;;26.00;55.10;;;;;;5011590;28;20403;-54
2023/08/22 11:51:33;;;;;;;3.53;2.58;;;26.10;55.60;;;;;;5009142;28;20036;-55
2023/08/22 11:53:58;;;;;;;5.10;2.75;;;26.00;55.70;;;;;;5005413;28;20026;-55
2023/08/22 11:56:24;;;;;;;2.60;2.40;;;26.10;56.60;;;;;;5002661;28;20034;-54
2023/08/22 11:58:51;;;;;;;4.93;2.75;;;26.00;55.70;;;;;;5008936;28;20026;-55
2023/08/22 12:01:20;;;;;;;5.25;2.63;;;26.00;56.10;;;;;;5003539;28;20026;-54
2023/08/22 12:03:47;;;;;;;5.28;2.60;;;26.00;56.00;;;;;;5006142;28;20029;-55
2023/08/22 12:06:13;;;;;;;2.80;2.45;;;26.00;55.40;;;;;;5011276;28;20033;-54
2023/08/22 12:08:39;;;;;;;3.08;2.10;;;26.00;55.00;;;;;;5005337;28;20455;-55
2023/08/22 12:11:06;;;;;;;4.75;2.33;;;26.00;54.60;;;;;;5005378;28;20037;-53
2023/08/22 12:13:32;;;;;;;4.18;2.35;;;26.00;54.90;;;;;;5007650;28;20034;-55
2023/08/22 12:15:57;;;;;;;2.92;2.28;;;26.10;54.70;;;;;;5000018;28;20398;-55
2023/08/22 12:18:32;;;;;;;3.78;2.47;;;26.00;53.90;;;;;;5008205;28;20038;-53
2023/08/22 12:20:58;;;;;;;3.28;2.42;;;26.10;54.10;;;;;;5007863;28;20037;-54
2023/08/22 12:23:24;;;;;;;3.83;2.30;;;26.10;53.80;;;;;;5006693;28;20100;-54
2023/08/22 12:25:50;;;;;;;5.15;2.25;;;26.00;53.90;;;;;;5003209;28;20123;-54
2023/08/22 12:28:15;;;;;;;5.10;2.30;;;26.10;53.90;;;;;;5003832;28;20032;-54
2023/08/22 12:30:41;;;;;;;4.15;2.72;;;26.00;53.80;;;;;;5010351;28;20105;-55
2023/08/22 12:33:08;;;;;;;2.75;2.20;;;26.00;53.60;;;;;;5013389;28;20038;-55
2023/08/22 12:35:36;;;;;;;4.35;2.50;;;26.10;54.00;;;;;;5008111;28;20461;-54